Time;durP1;ratioP1;P1;durP2;ratioP2;P2;SDS_P1;SDS_P2;PMS_P1;PMS_P2;Temp;Humidity;BMP_temperature;BMP_pressure;BME280_temperature;BME280_humidity;BME280_pressure;Samples;Min_cycle;Max_cycle;Signal;HPM_P1;HPM_P2
2021/03/23 00:00:25;;;;;;;50.73;18.63;;;;;;;4.00;60.91;100202.49;1776261;79;21255;-73
2021/03/23 00:02:54;;;;;;;44.53;18.05;;;;;;;3.92;61.16;100201.27;1776613;78;21200;-76
2021/03/23 00:05:20;;;;;;;46.53;17.92;;;;;;;4.00;60.94;100203.80;1776475;79;21613;-74
2021/03/23 00:07:46;;;;;;;53.13;19.52;;;;;;;4.06;60.74;100193.72;1776088;79;21228;-75
2021/03/23 00:10:37;;;;;;;47.97;18.43;;;;;;;3.99;60.92;100196.89;1776603;79;21186;-77
2021/03/23 00:13:02;;;;;;;45.23;17.62;;;;;;;4.02;61.11;100191.44;1777456;79;21201;-77
2021/03/23 00:15:28;;;;;;;49.23;19.13;;;;;;;4.15;60.58;100186.99;1777161;79;20962;-74
2021/03/23 00:17:54;;;;;;;50.10;19.10;;;;;;;4.08;60.69;100189.69;1778692;79;28800;-75
2021/03/23 00:20:23;;;;;;;47.38;18.62;;;;;;;4.06;61.02;100185.87;1777336;79;25443;-74
2021/03/23 00:22:48;;;;;;;46.05;17.00;;;;;;;4.17;60.71;100182.47;1777172;79;22408;-75
2021/03/23 00:25:15;;;;;;;44.17;18.23;;;;;;;4.16;60.77;100196.48;1779891;79;22609;-74
2021/03/23 00:27:40;;;;;;;39.25;16.10;;;;;;;4.07;61.03;100197.16;1774084;79;21193;-76
2021/03/23 00:30:09;;;;;;;43.33;18.20;;;;;;;4.02;60.69;100189.66;1779851;78;26344;-76
2021/03/23 00:32:35;;;;;;;45.40;17.55;;;;;;;4.06;60.76;100174.60;1777761;79;21588;-75
2021/03/23 00:35:00;;;;;;;47.17;18.40;;;;;;;4.06;61.00;100175.91;1777699;79;21264;-76
2021/03/23 00:37:26;;;;;;;45.20;17.73;;;;;;;4.06;61.04;100171.98;1780176;79;22592;-76
2021/03/23 00:39:52;;;;;;;50.30;18.57;;;;;;;3.95;61.42;100186.67;1778040;79;21092;-77
2021/03/23 00:42:18;;;;;;;48.53;18.93;;;;;;;4.09;61.11;100176.98;1777864;79;27227;-75
2021/03/23 00:44:44;;;;;;;45.63;17.17;;;;;;;4.09;61.02;100174.38;1779505;79;26205;-76
2021/03/23 00:47:09;;;;;;;49.03;18.53;;;;;;;4.16;60.66;100176.88;1777122;79;21242;-77
2021/03/23 00:49:35;;;;;;;40.47;16.23;;;;;;;4.11;60.68;100179.00;1778436;78;22629;-76
2021/03/23 00:52:01;;;;;;;47.20;18.50;;;;;;;4.06;60.77;100178.52;1782167;79;21035;-76
2021/03/23 00:54:26;;;;;;;47.90;17.70;;;;;;;4.04;60.94;100176.02;1778085;79;27158;-78
2021/03/23 00:56:52;;;;;;;42.40;16.90;;;;;;;4.13;60.77;100173.19;1778048;79;23236;-77
2021/03/23 00:59:18;;;;;;;46.97;17.53;;;;;;;4.13;60.69;100177.10;1776509;79;21189;-77
2021/03/23 01:01:44;;;;;;;43.23;16.77;;;;;;;4.07;60.78;100178.41;1779080;79;21600;-78
2021/03/23 01:04:10;;;;;;;47.30;16.63;;;;;;;4.13;60.59;100179.72;1777528;79;21073;-77
2021/03/23 01:06:35;;;;;;;41.53;16.37;;;;;;;4.17;60.44;100184.27;1783537;79;26356;-76
2021/03/23 01:09:02;;;;;;;43.52;17.30;;;;;;;4.10;60.67;100181.25;1777418;79;26428;-77
2021/03/23 01:11:28;;;;;;;41.15;15.95;;;;;;;4.11;60.78;100176.39;1777470;79;22011;-77
2021/03/23 01:13:54;;;;;;;39.27;15.63;;;;;;;4.14;60.70;100178.30;1773677;79;22164;-75
2021/03/23 01:16:19;;;;;;;40.90;16.20;;;;;;;4.04;60.88;100175.17;1779097;79;20979;-75
2021/03/23 01:18:45;;;;;;;46.98;17.42;;;;;;;4.02;61.21;100176.59;1778943;79;26893;-75
2021/03/23 01:21:11;;;;;;;45.70;17.67;;;;;;;3.99;61.43;100175.99;1779156;79;25338;-76
2021/03/23 01:23:37;;;;;;;42.57;15.93;;;;;;;3.99;61.58;100171.59;1775882;78;21634;-76
2021/03/23 01:26:02;;;;;;;47.53;17.17;;;;;;;4.01;61.74;100176.70;1776770;79;20943;-74
2021/03/23 01:28:28;;;;;;;43.67;17.27;;;;;;;4.09;61.58;100175.69;1776234;78;20955;-74
2021/03/23 01:30:54;;;;;;;40.70;16.30;;;;;;;4.06;61.59;100162.84;1775488;79;26843;-74
2021/03/23 01:33:20;;;;;;;42.90;17.13;;;;;;;4.14;61.50;100173.55;1785183;78;24297;-74
2021/03/23 01:35:46;;;;;;;43.50;17.20;;;;;;;4.16;61.60;100162.50;1777811;79;21273;-74
2021/03/23 01:38:11;;;;;;;47.70;17.63;;;;;;;4.14;61.68;100156.56;1776667;79;21695;-74
2021/03/23 01:40:39;;;;;;;45.73;17.53;;;;;;;4.07;61.93;100160.57;1775344;79;21039;-74
2021/03/23 01:43:06;;;;;;;40.60;16.77;;;;;;;4.15;61.78;100155.63;1779438;79;21183;-74
2021/03/23 01:45:40;;;;;;;44.20;17.45;;;;;;;4.07;62.10;100156.65;1784147;78;22442;-74
2021/03/23 01:48:28;;;;;;;41.55;17.45;;;;;;;4.04;62.19;100159.04;1776826;79;21772;-73
2021/03/23 01:50:58;;;;;;;37.17;16.85;;;;;;;3.99;62.54;100158.52;1777137;79;21212;-75
2021/03/23 01:53:41;;;;;;;43.75;17.32;;;;;;;3.97;62.58;100165.66;1777631;79;21235;-74
2021/03/23 01:56:08;;;;;;;48.15;18.40;;;;;;;4.07;62.31;100163.19;1776256;79;21201;-74
2021/03/23 01:58:40;;;;;;;44.60;17.02;;;;;;;4.10;62.21;100157.73;1778119;79;21423;-74
2021/03/23 02:01:09;;;;;;;43.70;17.35;;;;;;;4.06;62.38;100158.92;1782178;79;21190;-73
2021/03/23 02:03:35;;;;;;;41.00;16.00;;;;;;;4.11;62.24;100165.94;1778936;79;21212;-73
2021/03/23 02:06:01;;;;;;;40.03;15.90;;;;;;;4.00;62.50;100159.37;1777908;79;21143;-73
2021/03/23 02:08:27;;;;;;;44.08;16.52;;;;;;;4.04;62.42;100158.19;1779002;79;21166;-73
2021/03/23 02:10:55;;;;;;;40.37;16.27;;;;;;;3.89;62.79;100166.70;1754365;80;22327;-74
2021/03/23 02:13:21;;;;;;;38.80;16.02;;;;;;;4.02;62.40;100160.09;1779687;79;21370;-74
2021/03/23 02:15:46;;;;;;;48.47;16.90;;;;;;;4.05;62.37;100154.63;1781145;79;21035;-75
2021/03/23 02:18:25;;;;;;;39.90;16.33;;;;;;;3.97;62.33;100150.46;1765574;79;20962;-75
2021/03/23 02:21:08;;;;;;;39.78;16.87;;;;;;;3.94;62.36;100154.95;1777991;79;21215;-75
2021/03/23 02:23:37;;;;;;;41.75;17.35;;;;;;;3.98;62.18;100158.64;1776414;79;21192;-75
2021/03/23 02:26:04;;;;;;;39.18;15.58;;;;;;;3.90;62.39;100154.83;1778009;79;21979;-75
2021/03/23 02:28:31;;;;;;;46.53;18.00;;;;;;;3.80;62.50;100164.77;1775071;79;21203;-75
2021/03/23 02:30:57;;;;;;;41.30;16.12;;;;;;;3.80;62.67;100172.11;1765129;79;21208;-74
2021/03/23 02:33:23;;;;;;;41.50;16.20;;;;;;;3.95;62.25;100160.54;1777224;79;24394;-74
2021/03/23 02:35:49;;;;;;;39.57;16.30;;;;;;;3.89;62.25;100168.01;1779225;79;21045;-74
2021/03/23 02:38:14;;;;;;;42.10;16.00;;;;;;;3.84;62.47;100173.56;1776304;79;21198;-74
2021/03/23 02:40:42;;;;;;;42.63;16.33;;;;;;;3.85;62.50;100171.30;1777469;79;22020;-74
2021/03/23 02:43:07;;;;;;;42.45;16.55;;;;;;;3.91;62.39;100155.17;1777597;79;21114;-74
2021/03/23 02:45:33;;;;;;;37.83;15.37;;;;;;;3.80;62.41;100169.50;1777472;79;26832;-73
2021/03/23 02:47:59;;;;;;;39.40;16.02;;;;;;;3.81;62.31;100168.56;1778487;79;21194;-73
2021/03/23 02:50:25;;;;;;;43.63;16.30;;;;;;;3.88;61.95;100164.54;1779103;79;21272;-72
2021/03/23 02:52:51;;;;;;;37.10;15.20;;;;;;;3.81;62.32;100168.56;1778814;79;21704;-75
2021/03/23 02:55:17;;;;;;;43.80;15.67;;;;;;;3.83;62.37;100165.36;1776437;79;22797;-74
2021/03/23 02:57:42;;;;;;;40.47;15.90;;;;;;;3.82;62.16;100158.46;1776088;79;24856;-75
2021/03/23 03:00:11;;;;;;;38.50;14.95;;;;;;;3.78;62.22;100166.18;1784577;79;25196;-74
2021/03/23 03:02:37;;;;;;;35.73;14.87;;;;;;;3.76;62.02;100166.29;1779165;79;21189;-74
2021/03/23 03:05:06;;;;;;;37.07;14.47;;;;;;;3.76;61.93;100160.25;1775362;79;20923;-74
2021/03/23 03:07:31;;;;;;;36.38;14.90;;;;;;;3.93;61.48;100146.77;1774903;79;21225;-74
2021/03/23 03:09:57;;;;;;;32.80;13.40;;;;;;;3.91;61.44;100153.86;1776083;79;27818;-73
2021/03/23 03:12:23;;;;;;;34.43;13.32;;;;;;;3.93;61.39;100145.91;1774935;79;25195;-73
2021/03/23 03:14:49;;;;;;;32.33;13.23;;;;;;;3.85;61.41;100154.31;1779331;79;21602;-75
2021/03/23 03:17:14;;;;;;;38.93;14.07;;;;;;;3.90;61.29;100149.61;1774118;79;20971;-76
2021/03/23 03:19:40;;;;;;;39.83;14.20;;;;;;;3.75;61.51;100152.86;1778251;79;20923;-75
2021/03/23 03:22:06;;;;;;;33.60;12.97;;;;;;;3.86;61.18;100161.22;1777243;79;23985;-76
2021/03/23 03:24:32;;;;;;;34.13;13.07;;;;;;;3.85;61.35;100154.31;1777431;79;23257;-76
2021/03/23 03:26:58;;;;;;;34.90;13.67;;;;;;;3.91;61.21;100153.86;1773867;79;21430;-75
2021/03/23 03:29:23;;;;;;;31.77;12.33;;;;;;;3.90;61.24;100153.52;1779926;79;21544;-76
2021/03/23 03:31:49;;;;;;;30.13;12.93;;;;;;;3.80;60.86;100155.14;1777804;79;20924;-75
2021/03/23 03:34:16;;;;;;;31.83;13.13;;;;;;;3.85;60.68;100167.86;1779050;79;28300;-75
2021/03/23 03:36:42;;;;;;;31.52;12.55;;;;;;;3.89;60.64;100164.91;1779390;79;21234;-74
2021/03/23 03:39:07;;;;;;;31.87;13.03;;;;;;;3.89;60.42;100167.52;1776548;79;21930;-74
2021/03/23 03:41:34;;;;;;;30.50;11.73;;;;;;;3.89;60.43;100163.60;1769910;80;21602;-74
2021/03/23 03:44:00;;;;;;;32.15;11.78;;;;;;;3.89;60.42;100160.99;1751887;80;21179;-76
2021/03/23 03:46:26;;;;;;;31.53;11.27;;;;;;;3.99;60.14;100162.92;1769011;80;25929;-75
2021/03/23 03:48:52;;;;;;;27.30;12.23;;;;;;;3.94;60.24;100169.31;1766115;78;26194;-75
2021/03/23 03:51:18;;;;;;;29.80;12.30;;;;;;;4.03;60.01;100166.98;1771203;78;21164;-75
2021/03/23 03:53:44;;;;;;;33.38;12.20;;;;;;;4.05;60.18;100170.31;1771501;80;21548;-74
2021/03/23 03:56:10;;;;;;;27.48;11.33;;;;;;;4.05;60.11;100168.52;1769653;79;21225;-75
2021/03/23 03:58:36;;;;;;;31.37;11.73;;;;;;;3.98;60.19;100176.92;1768389;79;26824;-75
2021/03/23 04:01:02;;;;;;;27.90;10.47;;;;;;;4.02;60.02;100162.70;1771782;80;24275;-75
2021/03/23 04:03:29;;;;;;;28.05;11.45;;;;;;;4.12;59.67;100174.15;1769612;78;21174;-75
2021/03/23 04:05:56;;;;;;;24.67;10.35;;;;;;;4.08;59.81;100165.69;1773863;80;21208;-76
2021/03/23 04:08:31;;;;;;;25.48;9.73;;;;;;;4.12;59.48;100176.77;1766289;80;21196;-76
2021/03/23 04:10:58;;;;;;;29.50;11.00;;;;;;;3.99;59.87;100186.44;1772792;80;21189;-75
2021/03/23 04:13:24;;;;;;;27.73;11.03;;;;;;;4.06;59.67;100172.81;1768049;80;21224;-75
2021/03/23 04:15:50;;;;;;;24.83;10.23;;;;;;;4.12;59.66;100166.31;1770648;80;21106;-74
2021/03/23 04:18:19;;;;;;;28.30;10.93;;;;;;;4.18;59.59;100168.92;1770218;80;21201;-74
2021/03/23 04:20:45;;;;;;;26.25;10.38;;;;;;;4.15;59.82;100170.00;1767803;80;21211;-74
2021/03/23 04:23:22;;;;;;;22.50;9.87;;;;;;;4.10;59.91;100168.19;1771281;80;28252;-75
2021/03/23 04:25:48;;;;;;;24.98;10.63;;;;;;;4.11;60.05;100169.86;1766497;80;21196;-74
2021/03/23 04:28:13;;;;;;;27.23;11.50;;;;;;;4.10;60.31;100165.57;1765648;78;21367;-74
2021/03/23 04:30:39;;;;;;;29.50;11.17;;;;;;;4.08;60.52;100167.47;1771508;80;22700;-75
2021/03/23 04:33:05;;;;;;;30.00;11.60;;;;;;;3.94;60.93;100164.09;1769525;79;20968;-75
2021/03/23 04:35:51;;;;;;;33.37;11.87;;;;;;;3.84;61.49;100164.88;1770124;80;27353;-76
2021/03/23 04:38:24;;;;;;;30.25;11.10;;;;;;;3.90;61.46;100154.83;1769466;79;21206;-76
2021/03/23 04:40:50;;;;;;;26.20;10.90;;;;;;;4.00;61.25;100164.60;1756701;80;21312;-76
2021/03/23 04:43:24;;;;;;;29.95;11.30;;;;;;;3.94;61.46;100169.80;1750220;80;21189;-76
2021/03/23 04:45:49;;;;;;;29.42;11.38;;;;;;;3.93;61.59;100167.67;1758075;80;21226;-75
2021/03/23 04:48:15;;;;;;;27.33;11.07;;;;;;;4.02;61.37;100173.98;1758172;80;27772;-75
2021/03/23 04:50:42;;;;;;;28.07;11.48;;;;;;;4.07;61.28;100171.02;1761418;80;21232;-76
2021/03/23 04:53:19;;;;;;;30.40;10.98;;;;;;;3.99;61.63;100182.52;1763084;80;21615;-76
2021/03/23 04:55:46;;;;;;;27.55;11.05;;;;;;;3.92;61.79;100185.59;1761349;80;21220;-75
2021/03/23 04:58:11;;;;;;;26.68;11.40;;;;;;;3.93;61.81;100184.66;1753778;80;21249;-75
2021/03/23 05:00:37;;;;;;;31.70;11.60;;;;;;;3.91;61.91;100190.44;1757465;80;25832;-75
2021/03/23 05:03:03;;;;;;;28.13;10.80;;;;;;;3.89;61.95;100198.88;1754875;80;24224;-74
2021/03/23 05:05:29;;;;;;;23.80;10.40;;;;;;;4.05;61.67;100191.22;1755113;80;21416;-74
2021/03/23 05:07:55;;;;;;;29.13;11.30;;;;;;;4.07;61.63;100184.94;1768402;80;23598;-75
2021/03/23 05:10:21;;;;;;;28.38;10.50;;;;;;;4.06;61.50;100192.89;1753500;80;21191;-75
2021/03/23 05:12:46;;;;;;;26.67;10.47;;;;;;;4.03;61.69;100190.51;1755136;80;27995;-74
2021/03/23 05:15:13;;;;;;;26.97;10.93;;;;;;;4.13;61.25;100194.09;1753400;80;26169;-75
2021/03/23 05:17:39;;;;;;;27.07;11.20;;;;;;;4.03;61.48;100198.34;1759210;80;21227;-75
2021/03/23 05:20:07;;;;;;;27.97;11.20;;;;;;;3.98;61.80;100195.22;1759843;79;22616;-74
2021/03/23 05:22:33;;;;;;;28.17;11.22;;;;;;;4.00;61.73;100203.80;1755832;80;21218;-75
2021/03/23 05:24:59;;;;;;;30.43;10.90;;;;;;;4.00;61.74;100203.80;1765159;80;25946;-74
2021/03/23 05:27:24;;;;;;;27.90;11.73;;;;;;;3.94;61.90;100200.66;1759619;80;26461;-74
2021/03/23 05:29:50;;;;;;;29.10;11.77;;;;;;;3.89;62.08;100201.97;1753735;79;21617;-74
2021/03/23 05:32:16;;;;;;;28.93;12.17;;;;;;;3.92;62.19;100211.71;1759954;79;21058;-75
2021/03/23 05:34:42;;;;;;;27.47;10.93;;;;;;;3.87;62.36;100221.67;1766382;80;20915;-75
2021/03/23 05:37:08;;;;;;;33.13;12.03;;;;;;;4.05;62.09;100208.20;1758048;80;27812;-75
2021/03/23 05:39:33;;;;;;;32.67;12.37;;;;;;;4.16;61.60;100216.56;1766103;78;24868;-74
2021/03/23 05:42:13;;;;;;;27.90;11.53;;;;;;;4.26;61.49;100219.69;1789499;78;21233;-75
2021/03/23 05:44:50;;;;;;;35.00;12.95;;;;;;;4.22;61.46;100222.16;1750332;78;21260;-74
2021/03/23 05:47:20;;;;;;;29.37;11.00;;;;;;;4.35;61.37;100229.09;1788471;78;21709;-74
2021/03/23 05:50:14;;;;;;;30.30;12.13;;;;;;;4.33;61.26;100216.13;1785180;78;21706;-74
2021/03/23 05:52:57;;;;;;;29.37;11.73;;;;;;;4.31;61.37;100225.40;1789726;78;21762;-75
2021/03/23 05:55:43;;;;;;;27.52;11.88;;;;;;;4.23;61.11;100236.91;1785092;78;21900;-75
2021/03/23 05:58:22;;;;;;;34.45;12.53;;;;;;;4.20;61.50;100229.77;1790520;78;21172;-75
2021/03/23 06:01:01;;;;;;;29.70;11.40;;;;;;;4.10;61.93;100225.67;1790320;78;21207;-75
2021/03/23 06:03:43;;;;;;;30.97;11.48;;;;;;;4.22;61.73;100223.47;1791983;78;21809;-75
2021/03/23 06:06:57;;;;;;;29.52;12.20;;;;;;;4.18;61.84;100232.50;1785703;78;21177;-75
2021/03/23 06:09:27;;;;;;;30.65;11.85;;;;;;;4.22;61.74;100237.84;1747508;80;21239;-75
2021/03/23 06:11:58;;;;;;;28.10;10.23;;;;;;;4.29;61.75;100239.06;1743821;80;21238;-74
2021/03/23 06:14:32;;;;;;;28.62;11.38;;;;;;;4.23;61.92;100226.45;1756957;78;21493;-74
2021/03/23 06:17:33;;;;;;;26.77;10.80;;;;;;;4.26;61.88;100239.30;1787099;78;21659;-74
2021/03/23 06:20:38;;;;;;;25.25;10.43;;;;;;;4.36;61.78;100232.08;1751591;78;21203;-77
2021/03/23 06:23:48;;;;;;;25.65;11.10;;;;;;;4.30;62.05;100235.52;1788317;78;21240;-75
2021/03/23 06:26:47;;;;;;;24.75;10.35;;;;;;;4.30;62.07;100231.59;1788337;78;21247;-74
2021/03/23 06:29:51;;;;;;;29.00;11.10;;;;;;;4.37;62.16;100229.83;1789073;78;21235;-75
2021/03/23 06:32:27;;;;;;;26.77;10.05;;;;;;;4.29;62.24;100252.14;1786446;78;21215;-74
2021/03/23 06:34:57;;;;;;;21.30;8.97;;;;;;;4.34;62.41;100253.59;1790914;78;21199;-75
2021/03/23 06:37:38;;;;;;;24.30;9.78;;;;;;;4.28;62.79;100245.23;1788771;78;21954;-74
2021/03/23 06:40:30;;;;;;;30.12;10.03;;;;;;;4.37;62.74;100238.98;1784752;78;21622;-73
2021/03/23 06:42:59;;;;;;;26.10;9.88;;;;;;;4.33;63.08;100244.89;1775036;79;21212;-75
2021/03/23 06:45:37;;;;;;;24.92;9.33;;;;;;;4.47;62.81;100234.27;1743732;81;21222;-74
2021/03/23 06:48:28;;;;;;;22.07;8.80;;;;;;;4.49;62.87;100248.05;1740029;81;21162;-76
2021/03/23 06:51:13;;;;;;;31.35;10.30;;;;;;;4.45;63.19;100236.14;1738479;81;21495;-75
2021/03/23 06:53:40;;;;;;;23.32;9.80;;;;;;;4.46;63.49;100234.38;1742347;81;21161;-73
2021/03/23 06:56:21;;;;;;;22.22;9.58;;;;;;;4.63;63.17;100239.17;1741414;81;21224;-74
2021/03/23 06:58:49;;;;;;;23.12;9.93;;;;;;;4.61;63.40;100242.35;1747139;81;21275;-73
2021/03/23 07:01:23;;;;;;;24.98;9.73;;;;;;;4.57;63.77;100238.32;1740156;81;21843;-73
2021/03/23 07:03:53;;;;;;;19.48;9.05;;;;;;;4.73;63.66;100238.47;1727903;81;21962;-73
2021/03/23 07:06:28;;;;;;;23.67;9.38;;;;;;;4.84;63.67;100239.80;1716636;82;21209;-77
2021/03/23 07:09:10;;;;;;;21.55;9.40;;;;;;;4.92;63.44;100230.05;1717946;82;21663;-74
2021/03/23 07:12:01;;;;;;;19.92;8.90;;;;;;;4.89;63.85;100244.19;1714950;82;21198;-77
2021/03/23 07:14:39;;;;;;;20.35;8.65;;;;;;;4.90;63.79;100238.02;1716016;82;21244;-77
2021/03/23 07:17:17;;;;;;;24.18;8.68;;;;;;;5.01;63.82;100235.40;1719777;82;21727;-76
2021/03/23 07:19:53;;;;;;;23.40;9.10;;;;;;;5.03;63.83;100239.20;1714803;82;21742;-77
2021/03/23 07:22:30;;;;;;;21.87;9.50;;;;;;;5.01;64.01;100244.56;1718542;82;21212;-75
2021/03/23 07:24:57;;;;;;;20.70;7.85;;;;;;;5.09;64.15;100247.08;1718316;82;21528;-77
2021/03/23 07:27:26;;;;;;;20.12;8.83;;;;;;;4.94;64.48;100259.09;1721044;82;21236;-76
2021/03/23 07:29:52;;;;;;;20.08;8.48;;;;;;;5.00;64.65;100258.62;1712809;82;21761;-75
2021/03/23 07:32:40;;;;;;;20.70;8.40;;;;;;;5.13;64.35;100278.13;1663706;82;22560;-74
2021/03/23 07:35:26;;;;;;;20.08;9.15;;;;;;;5.20;64.09;100248.38;1715546;82;21242;-77
2021/03/23 07:38:03;;;;;;;23.18;8.33;;;;;;;5.26;64.35;100251.83;1716131;82;21697;-76
2021/03/23 07:40:40;;;;;;;18.90;8.05;;;;;;;5.40;63.94;100263.36;1714365;82;21642;-76
2021/03/23 07:43:30;;;;;;;25.27;8.93;;;;;;;5.33;64.31;100270.50;1705069;82;21248;-77
2021/03/23 07:46:11;;;;;;;18.95;9.18;;;;;;;5.43;64.23;100247.07;1711899;82;21451;-75
2021/03/23 07:49:07;;;;;;;19.32;8.43;;;;;;;5.54;63.78;100274.06;1763430;79;21770;-74
2021/03/23 07:51:41;;;;;;;19.12;8.78;;;;;;;5.48;63.65;100272.41;1761577;79;21198;-75
2021/03/23 07:54:24;;;;;;;17.00;7.50;;;;;;;5.61;63.59;100243.00;1732320;80;22294;-74
2021/03/23 07:57:35;;;;;;;23.07;8.88;;;;;;;5.65;63.74;100241.78;1747499;79;21237;-77
2021/03/23 08:00:45;;;;;;;19.42;8.43;;;;;;;5.59;63.93;100250.13;1754677;80;21198;-74
2021/03/23 08:03:45;;;;;;;18.52;8.53;;;;;;;5.53;64.31;100246.68;1757031;79;21239;-74
2021/03/23 08:06:35;;;;;;;23.38;9.25;;;;;;;5.67;64.24;100247.75;1763265;80;21178;-75
2021/03/23 08:09:26;;;;;;;21.62;9.60;;;;;;;5.73;64.40;100255.13;1761683;79;21708;-76
2021/03/23 08:12:20;;;;;;;21.82;9.50;;;;;;;5.59;64.55;100260.61;1709450;79;22040;-74
2021/03/23 08:15:16;;;;;;;19.02;9.20;;;;;;;5.80;64.39;100262.50;1763138;79;21245;-75
2021/03/23 08:17:54;;;;;;;21.90;9.10;;;;;;;5.99;64.25;100264.50;1755309;80;21225;-77
2021/03/23 08:20:59;;;;;;;22.80;10.15;;;;;;;6.18;63.59;100274.32;1761675;79;21231;-76
2021/03/23 08:23:36;;;;;;;22.32;9.73;;;;;;;6.21;63.39;100280.14;1713392;82;21227;-76
2021/03/23 08:26:25;;;;;;;;;;;;;;;6.31;63.01;100275.45;1757081;79;21287;-74
2021/03/23 08:29:05;;;;;;;18.85;9.08;;;;;;;6.49;62.48;100276.57;1760850;79;20320;-74
2021/03/23 08:31:56;;;;;;;26.95;10.48;;;;;;;6.69;62.04;100277.55;1759278;79;21150;-75
2021/03/23 08:35:05;;;;;;;21.60;9.20;;;;;;;6.47;62.68;100278.02;1756755;79;21218;-75
2021/03/23 08:38:09;;;;;;;19.27;9.20;;;;;;;6.55;62.55;100259.50;1711810;80;21240;-75
2021/03/23 08:40:53;;;;;;;22.00;8.58;;;;;;;6.67;62.30;100272.91;1771871;79;21638;-76
2021/03/23 08:43:42;;;;;;;22.73;8.85;;;;;;;6.72;62.39;100275.98;1781316;79;21200;-74
2021/03/23 08:46:15;;;;;;;16.37;8.70;;;;;;;6.56;62.36;100270.36;1776859;79;21325;-74
2021/03/23 08:48:51;;;;;;;23.47;9.48;;;;;;;6.70;62.04;100268.72;1774163;78;21196;-77
2021/03/23 08:51:20;;;;;;;19.00;8.80;;;;;;;6.56;62.25;100288.73;1779633;78;21201;-76
2021/03/23 08:53:57;;;;;;;19.57;8.78;;;;;;;6.53;62.99;100288.98;1783477;79;21287;-77
2021/03/23 08:56:47;;;;;;;19.55;9.48;;;;;;;6.47;63.34;100282.44;1733543;79;21229;-76
2021/03/23 08:59:37;;;;;;;22.35;8.45;;;;;;;6.77;62.41;100273.79;1779333;79;21196;-76
2021/03/23 09:02:14;;;;;;;20.45;9.08;;;;;;;6.73;62.39;100277.66;1779781;79;21213;-76
2021/03/23 09:04:52;;;;;;;21.62;9.53;;;;;;;6.66;62.55;100288.30;1781897;79;21199;-76
2021/03/23 09:07:21;;;;;;;20.85;9.23;;;;;;;6.67;63.14;100289.15;1779396;79;21250;-76
2021/03/23 09:09:52;;;;;;;20.25;9.10;;;;;;;6.76;63.07;100286.58;1779901;79;21204;-76
2021/03/23 09:12:42;;;;;;;20.37;8.38;;;;;;;6.74;62.87;100308.20;1779138;79;21736;-75
2021/03/23 09:15:17;;;;;;;21.65;8.83;;;;;;;6.90;62.56;100284.58;1780097;79;21265;-75
2021/03/23 09:18:15;;;;;;;19.77;8.65;;;;;;;6.96;61.89;100312.48;1777686;79;21684;-76
2021/03/23 09:20:46;;;;;;;22.77;8.78;;;;;;;6.89;62.07;100292.13;1774898;79;21276;-76
2021/03/23 09:23:27;;;;;;;20.72;9.20;;;;;;;7.00;62.24;100292.86;1777256;79;21598;-75
2021/03/23 09:26:32;;;;;;;19.02;8.83;;;;;;;7.06;62.23;100282.33;1776673;79;21225;-75
2021/03/23 09:29:26;;;;;;;23.73;9.23;;;;;;;7.14;62.22;100283.81;1777005;79;21209;-75
2021/03/23 09:31:57;;;;;;;18.25;8.90;;;;;;;7.16;61.99;100298.98;1779796;79;21185;-76
2021/03/23 09:35:11;;;;;;;16.82;8.28;;;;;;;7.31;61.83;100293.38;1776986;78;21710;-75
2021/03/23 09:37:38;;;;;;;19.77;8.98;;;;;;;7.42;61.19;100288.52;1776966;79;21245;-75
2021/03/23 09:40:24;;;;;;;20.25;8.78;;;;;;;7.52;60.71;100289.39;1778395;79;21579;-74
2021/03/23 09:42:59;;;;;;;20.08;8.25;;;;;;;7.55;60.33;100305.72;1770466;78;21223;-76
2021/03/23 09:45:38;;;;;;;19.32;8.50;;;;;;;7.62;60.36;100307.81;1734205;79;21184;-75
2021/03/23 09:48:43;;;;;;;17.75;8.95;;;;;;;7.64;60.48;100296.67;1778363;79;21640;-74
2021/03/23 09:51:41;;;;;;;19.95;9.15;;;;;;;7.86;60.37;100304.36;1780465;79;21200;-74
2021/03/23 09:54:23;;;;;;;17.20;8.38;;;;;;;8.01;60.11;100310.05;1778258;78;21192;-74
2021/03/23 09:56:51;;;;;;;18.77;8.25;;;;;;;8.13;59.36;100313.41;1778724;78;21117;-75
2021/03/23 09:59:25;;;;;;;16.02;7.87;;;;;;;8.23;59.16;100318.20;1781508;78;21150;-75
2021/03/23 10:02:04;;;;;;;20.62;8.38;;;;;;;8.36;58.46;100319.70;1777644;78;21219;-75
2021/03/23 10:04:40;;;;;;;18.25;8.48;;;;;;;8.41;57.90;100313.57;1778998;78;21228;-74
2021/03/23 10:07:08;;;;;;;19.98;8.10;;;;;;;8.47;58.23;100318.78;1779295;79;21432;-75
2021/03/23 10:09:36;;;;;;;18.42;7.85;;;;;;;8.57;57.15;100336.23;1780787;79;21185;-75
2021/03/23 10:12:04;;;;;;;17.55;7.10;;;;;;;8.89;56.80;100328.54;1778199;79;21174;-75
2021/03/23 10:14:37;;;;;;;18.07;7.42;;;;;;;9.18;55.27;100330.27;1780485;78;21233;-74
2021/03/23 10:17:24;;;;;;;14.18;6.80;;;;;;;9.40;54.79;100324.31;1767022;78;21232;-74
2021/03/23 10:19:55;;;;;;;14.15;7.03;;;;;;;9.67;54.08;100320.88;1778644;79;21177;-74
2021/03/23 10:22:28;;;;;;;13.90;5.87;;;;;;;9.82;53.18;100322.53;1777190;79;21221;-75
2021/03/23 10:24:55;;;;;;;15.45;6.08;;;;;;;9.87;52.72;100324.26;1778083;79;21218;-76
2021/03/23 10:27:34;;;;;;;12.00;6.00;;;;;;;9.91;51.43;100325.60;1777968;79;21239;-74
2021/03/23 10:30:20;;;;;;;14.03;6.20;;;;;;;10.01;52.05;100332.98;1773377;79;21623;-74
2021/03/23 10:32:50;;;;;;;15.68;7.25;;;;;;;10.12;51.44;100324.53;1778410;79;21447;-73
2021/03/23 10:35:39;;;;;;;17.07;7.65;;;;;;;9.88;52.06;100337.30;1779446;79;21209;-74
2021/03/23 10:38:25;;;;;;;17.10;8.10;;;;;;;9.56;52.79;100340.36;1781058;79;22238;-76
2021/03/23 10:40:53;;;;;;;15.83;8.08;;;;;;;9.77;53.03;100331.38;1778663;79;21639;-75
2021/03/23 10:43:38;;;;;;;16.85;7.35;;;;;;;9.97;52.58;100328.97;1755914;80;21189;-75
2021/03/23 10:46:27;;;;;;;15.60;7.78;;;;;;;10.14;52.40;100327.84;1757752;80;21218;-76
2021/03/23 10:48:53;;;;;;;19.10;8.40;;;;;;;10.05;52.04;100338.31;1757642;80;21260;-74
2021/03/23 10:51:28;;;;;;;16.45;7.53;;;;;;;10.10;52.14;100330.42;1757427;80;25241;-75
2021/03/23 10:54:12;;;;;;;17.25;8.05;;;;;;;9.92;52.42;100335.19;1761255;80;21213;-75
2021/03/23 10:56:40;;;;;;;19.05;7.85;;;;;;;9.91;52.55;100330.88;1759714;79;21172;-76
2021/03/23 10:59:12;;;;;;;15.55;8.38;;;;;;;9.74;53.34;100332.98;1756074;79;21189;-74
2021/03/23 11:01:58;;;;;;;21.87;8.83;;;;;;;9.72;53.59;100319.13;1759832;80;21190;-75
2021/03/23 11:04:23;;;;;;;16.42;7.85;;;;;;;9.85;53.52;100326.19;1758399;80;21248;-75
2021/03/23 11:06:50;;;;;;;16.40;8.23;;;;;;;10.14;52.83;100326.52;1759174;80;21843;-75
2021/03/23 11:09:17;;;;;;;18.15;7.87;;;;;;;10.15;52.54;100321.59;1758373;79;21517;-75
2021/03/23 11:11:44;;;;;;;18.40;7.80;;;;;;;9.94;52.56;100329.27;1760691;80;21633;-75
2021/03/23 11:14:10;;;;;;;15.15;8.25;;;;;;;9.73;53.49;100327.39;1753257;80;21149;-75
2021/03/23 11:16:38;;;;;;;18.05;7.95;;;;;;;9.81;53.62;100332.75;1757457;80;21006;-75
2021/03/23 11:19:15;;;;;;;16.20;8.08;;;;;;;9.76;53.87;100327.09;1759137;80;22386;-77
2021/03/23 11:21:42;;;;;;;16.30;8.20;;;;;;;9.91;53.55;100322.96;1730861;80;21162;-75
2021/03/23 11:24:08;;;;;;;20.35;8.00;;;;;;;9.98;53.48;100320.59;1758220;80;21193;-75
2021/03/23 11:26:34;;;;;;;14.27;7.30;;;;;;;9.94;53.68;100327.95;1760383;80;21185;-77
2021/03/23 11:29:05;;;;;;;19.15;7.80;;;;;;;9.73;54.18;100331.34;1759991;79;21692;-77
2021/03/23 11:31:29;;;;;;;;;;;;;;;10.05;53.65;100338.31;1760297;80;21192;-75
2021/03/23 11:33:55;;;;;;;15.83;8.00;;;;;;;10.05;53.70;100333.04;1761180;80;20298;-76
2021/03/23 11:36:23;;;;;;;15.10;7.58;;;;;;;9.70;54.27;100331.14;1761002;80;21222;-78
2021/03/23 11:38:49;;;;;;;18.48;8.05;;;;;;;9.76;54.45;100329.73;1756909;80;21158;-76
2021/03/23 11:41:22;;;;;;;20.05;8.23;;;;;;;9.74;54.56;100352.77;1756971;80;21194;-76
2021/03/23 11:44:00;;;;;;;17.05;8.50;;;;;;;9.66;54.94;100344.27;1757888;81;21217;-77
2021/03/23 11:46:52;;;;;;;20.88;8.10;;;;;;;9.55;55.25;100347.91;1753307;81;21206;-76
2021/03/23 11:49:52;;;;;;;17.80;7.80;;;;;;;9.67;55.13;100334.89;1760351;79;21748;-76
2021/03/23 11:52:18;;;;;;;18.00;8.08;;;;;;;9.95;54.47;100342.80;1755990;79;21696;-75